Lake Charles Regional Airport
KLCH : now visible

Airfield :











YOU CAN JOIN US ON...

 
LOGIN :

Register | Disclaimer

   EN    FR    IT 

 









Legend :    VFR   Marginal VFR   IFR   Intensive IFR   Very Intensive IFR
Visi :
Ceiling :
>= 8 km
>= 3000ft
5 to 8 km
1000 to 3000 ft
1500m to 5 km
500 to 1000 ft
800 to 1500m
200 to 500 ft
< 800m
< 200 ft
Symbols :   Thunderstorms  Fog  Heavy snow  Heavy precipitations  Wind > 20 kt






- Airport Elevation : 15 ft
- IATA code : LCH


KLCH - Lake Charles Regional

CURRENT METAR :
  • 190353Z AUTO 36012KT 10SM BKN070 OVC090 17/14 A3021 RMK AO2 SLP238 T01720144

EXPIRED METARs :
  • 190253Z 36008KT 10SM FEW047 BKN065 OVC080 18/16 A3021 RMK AO2 RAB26E36 SLP239 P0000 60015 T01780156 53012
  • 190153Z 32010KT 10SM FEW012 BKN042 OVC060 18/16 A3021 RMK AO2 RAE52 SLP237 P0008 T01780161

TAF KLCH
Valid from the 19 at 03:00 until the 20 at 00:00 UTC


190311Z 1903/1924 36012G20KT P6SM SCT050 BKN080 OVC100
FM190600 36015G23KT P6SM SCT100
FM191500 03018G26KT P6SM SKC



MET'MAP, your aeronautical weather chart ! - Copyright ORBIFLY December 2007 - Disclaimer

ORBIFLY MET'MAP TEAM :

Programming & Development : Alexandra Zaïnal
Concept & original design : Baudouin d'Aumeries
Assistance for programming : Marc-Olivier Méhu
Technical & hardware support : Manuel Goepfert

Contact : metmap@orbifly.com




SOURCES & CREDITS :

   NOAA       Earth
Advisory